Time;durP1;ratioP1;P1;durP2;ratioP2;P2;SDS_P1;SDS_P2;PMS_P1;PMS_P2;Temp;Humidity;BMP_temperature;BMP_pressure;BME280_temperature;BME280_humidity;BME280_pressure;Samples;Min_cycle;Max_cycle;Signal;HPM_P1;HPM_P2
2022/07/30 00:00:59;;;;;;;6.67;2.33;;;;;;;16.94;100.00;101268.31;5016302;28;20045;-73
2022/07/30 00:03:26;;;;;;;5.10;2.60;;;;;;;16.92;100.00;101278.44;5020655;28;20105;-73
2022/07/30 00:05:53;;;;;;;6.53;2.42;;;;;;;16.90;100.00;101285.06;5017453;28;20394;-73
2022/07/30 00:08:20;;;;;;;10.32;2.55;;;;;;;16.87;100.00;101270.94;5019116;28;20121;-73
2022/07/30 00:10:45;;;;;;;4.82;2.70;;;;;;;16.83;100.00;101272.34;5019173;28;20687;-73
2022/07/30 00:13:10;;;;;;;3.83;2.20;;;;;;;16.81;100.00;101277.09;5019407;28;20026;-75
2022/07/30 00:15:36;;;;;;;4.20;2.47;;;;;;;16.81;100.00;101278.94;5019177;28;20037;-75
2022/07/30 00:18:02;;;;;;;8.13;2.85;;;;;;;16.82;100.00;101284.16;5016145;28;20021;-73
2022/07/30 00:20:28;;;;;;;6.18;2.00;;;;;;;16.88;100.00;101283.41;5019834;28;20750;-73
2022/07/30 00:22:53;;;;;;;7.28;2.75;;;;;;;16.83;100.00;101282.28;5018247;28;20411;-73
2022/07/30 00:25:18;;;;;;;6.23;2.23;;;;;;;16.90;100.00;101288.59;5018731;28;20029;-73
2022/07/30 00:27:44;;;;;;;4.43;4.00;;;;;;;16.89;100.00;101289.63;5018083;28;20166;-73
2022/07/30 00:30:10;;;;;;;4.70;2.17;;;;;;;16.88;100.00;101280.69;5015828;28;20049;-72
2022/07/30 00:32:36;;;;;;;5.30;2.28;;;;;;;16.88;100.00;101288.78;5017519;28;20025;-73
2022/07/30 00:35:02;;;;;;;6.85;2.92;;;;;;;16.87;100.00;101288.97;4999403;28;20034;-73
2022/07/30 00:37:27;;;;;;;4.30;2.17;;;;;;;16.87;100.00;101300.59;5002027;28;20457;-73
2022/07/30 00:39:52;;;;;;;3.27;2.30;;;;;;;16.85;100.00;101289.16;5016106;28;20279;-74
2022/07/30 00:42:24;;;;;;;4.80;2.55;;;;;;;16.86;100.00;101287.31;5000451;28;20040;-73
2022/07/30 00:44:53;;;;;;;4.03;2.72;;;;;;;16.84;100.00;101290.19;5016910;28;20029;-72
2022/07/30 00:47:19;;;;;;;6.85;3.17;;;;;;;16.88;100.00;101296.88;5018469;28;20030;-73
2022/07/30 00:49:45;;;;;;;9.00;2.47;;;;;;;16.86;100.00;101292.72;5001736;28;20531;-72
2022/07/30 00:52:11;;;;;;;4.32;2.25;;;;;;;16.85;100.00;101286.47;5017467;28;20037;-73
2022/07/30 00:54:36;;;;;;;5.95;2.38;;;;;;;16.79;100.00;101289.09;5016296;28;20050;-73
2022/07/30 00:57:02;;;;;;;5.33;2.63;;;;;;;16.91;100.00;101294.84;5014800;28;20036;-73
2022/07/30 00:59:28;;;;;;;5.63;2.80;;;;;;;16.85;100.00;101288.31;5019226;28;20029;-73
2022/07/30 01:01:54;;;;;;;9.77;2.78;;;;;;;16.79;100.00;101281.00;5001838;28;20544;-73
2022/07/30 01:04:20;;;;;;;12.50;4.10;;;;;;;16.77;100.00;101283.84;5014597;28;20095;-73
2022/07/30 01:06:46;;;;;;;6.68;2.88;;;;;;;16.73;100.00;101287.13;5019377;28;20045;-73
2022/07/30 01:09:11;;;;;;;6.60;2.80;;;;;;;16.65;100.00;101277.28;5016648;28;20526;-72
2022/07/30 01:11:40;;;;;;;12.67;3.03;;;;;;;16.69;100.00;101286.66;4998129;28;20537;-73
2022/07/30 01:14:07;;;;;;;5.82;2.30;;;;;;;16.68;100.00;101282.31;5011518;28;20455;-73
2022/07/30 01:16:34;;;;;;;3.20;2.35;;;;;;;16.61;100.00;101276.00;5019368;28;20509;-73
2022/07/30 01:21:59;;;;;;;4.07;2.30;;;;;;;16.59;100.00;101269.97;5014487;28;20036;-75
2022/07/30 01:24:27;;;;;;;7.38;2.42;;;;;;;16.56;100.00;101265.78;5018574;28;20876;-74
2022/07/30 01:26:54;;;;;;;7.38;2.20;;;;;;;16.50;100.00;101263.84;5017772;28;20486;-75
2022/07/30 01:29:21;;;;;;;4.10;2.33;;;;;;;16.46;100.00;101267.94;5017314;28;20041;-74
2022/07/30 01:31:49;;;;;;;3.67;2.20;;;;;;;16.45;100.00;101269.78;5017856;28;20010;-75
2022/07/30 01:34:16;;;;;;;5.60;2.53;;;;;;;16.41;100.00;101262.28;5015518;28;20030;-74
2022/07/30 01:36:44;;;;;;;6.35;3.20;;;;;;;16.42;100.00;101264.78;5017340;28;20071;-74
2022/07/30 01:39:11;;;;;;;4.88;2.10;;;;;;;16.42;100.00;101263.97;5013669;28;20037;-75
2022/07/30 01:41:39;;;;;;;5.78;2.80;;;;;;;16.38;100.00;101268.88;5018664;28;20021;-75
2022/07/30 01:44:06;;;;;;;8.95;2.67;;;;;;;16.33;100.00;101262.38;5012041;28;20061;-74
2022/07/30 01:46:32;;;;;;;5.25;2.63;;;;;;;16.22;100.00;101269.06;5002538;28;20018;-76
2022/07/30 01:48:58;;;;;;;;;;;;;;;16.16;100.00;101267.97;4998431;28;20037;-75
2022/07/30 01:51:26;;;;;;;9.13;2.53;;;;;;;16.11;100.00;101266.84;4995733;28;20045;-74
2022/07/30 01:53:52;;;;;;;8.35;2.28;;;;;;;16.06;100.00;101274.66;4989004;28;20164;-75
2022/07/30 01:56:23;;;;;;;3.85;2.50;;;;;;;16.00;100.00;101271.69;5016999;28;20560;-72
2022/07/30 01:58:51;;;;;;;4.90;2.38;;;;;;;15.96;100.00;101269.53;5015406;28;20502;-72
2022/07/30 02:01:23;;;;;;;4.97;2.33;;;;;;;15.95;100.00;101267.88;5016904;28;20113;-73
2022/07/30 02:03:52;;;;;;;5.63;2.92;;;;;;;15.93;100.00;101278.84;5016717;28;20029;-73
2022/07/30 02:06:19;;;;;;;;;;;;;;;15.93;100.00;101276.13;5018938;28;20103;-73
2022/07/30 02:08:55;;;;;;;5.43;2.67;;;;;;;15.94;100.00;101269.72;5015751;28;19920;-74
2022/07/30 02:14:25;;;;;;;9.98;3.50;;;;;;;15.80;100.00;101262.47;5011810;28;20034;-73
2022/07/30 02:16:56;;;;;;;3.70;1.90;;;;;;;15.78;100.00;101261.81;5000111;28;20084;-76
2022/07/30 02:19:27;;;;;;;3.88;2.60;;;;;;;15.76;100.00;101274.66;5000394;28;20041;-75
2022/07/30 02:22:02;;;;;;;7.90;2.63;;;;;;;15.76;100.00;101261.19;5014474;28;20034;-75
2022/07/30 02:24:32;;;;;;;6.05;3.72;;;;;;;15.72;100.00;101262.56;5013182;28;20391;-75
2022/07/30 02:27:02;;;;;;;6.95;2.60;;;;;;;15.70;100.00;101265.44;5000763;28;20039;-75
2022/07/30 02:29:32;;;;;;;4.60;2.17;;;;;;;15.69;100.00;101265.59;5012588;28;20940;-75
2022/07/30 02:32:00;;;;;;;11.88;2.88;;;;;;;15.68;100.00;101263.91;5013043;28;20057;-75
2022/07/30 02:34:28;;;;;;;7.55;3.13;;;;;;;15.59;100.00;101261.31;5018901;28;20109;-75
2022/07/30 02:36:57;;;;;;;8.45;3.38;;;;;;;15.59;100.00;101261.31;5012729;28;20499;-75
2022/07/30 02:39:25;;;;;;;9.90;2.58;;;;;;;15.58;100.00;101265.00;5015334;28;20034;-75
2022/07/30 02:41:55;;;;;;;9.85;2.70;;;;;;;15.56;100.00;101264.34;5016366;28;20125;-75
2022/07/30 02:44:22;;;;;;;4.20;2.40;;;;;;;15.55;100.00;101264.56;4996669;28;20018;-75
2022/07/30 02:46:49;;;;;;;3.75;2.92;;;;;;;15.48;100.00;101258.25;5015294;28;20038;-73
2022/07/30 02:49:37;;;;;;;7.60;3.00;;;;;;;15.42;100.00;101267.84;5006442;28;20554;-73
2022/07/30 02:52:04;;;;;;;5.47;2.50;;;;;;;15.39;100.00;101270.91;5012768;28;20041;-72
2022/07/30 02:54:29;;;;;;;;;;;;;;;15.39;100.00;101279.81;5008722;28;20469;-73
2022/07/30 02:56:59;;;;;;;5.90;3.47;;;;;;;15.31;100.00;101271.84;4996187;28;19913;-72
2022/07/30 02:59:27;;;;;;;5.90;2.75;;;;;;;15.27;100.00;101275.91;5015421;28;20087;-72
2022/07/30 03:01:54;;;;;;;5.97;3.15;;;;;;;15.22;100.00;101266.69;4999533;28;20029;-73
2022/07/30 03:04:20;;;;;;;5.13;2.80;;;;;;;15.15;100.00;101278.16;5013865;28;20611;-73
2022/07/30 03:06:47;;;;;;;6.47;2.95;;;;;;;15.11;100.00;101276.84;5012976;28;20058;-73
2022/07/30 03:09:14;;;;;;;;;;;;;;;15.14;100.00;101272.97;5017512;28;20501;-73
2022/07/30 03:11:40;;;;;;;6.45;2.97;;;;;;;15.13;100.00;101269.44;5012647;28;19924;-73
2022/07/30 03:14:07;;;;;;;5.78;3.17;;;;;;;15.17;100.00;101269.91;5013045;28;20443;-73
2022/07/30 03:16:37;;;;;;;5.55;2.60;;;;;;;15.23;100.00;101274.56;5015945;28;20479;-73
2022/07/30 03:19:06;;;;;;;11.80;3.38;;;;;;;15.28;100.00;101276.72;5015764;28;20120;-73
2022/07/30 03:21:34;;;;;;;5.65;3.05;;;;;;;15.37;100.00;101281.03;4988634;28;20061;-75
2022/07/30 03:24:02;;;;;;;6.93;2.50;;;;;;;15.43;100.00;101280.31;5012860;28;20071;-75
2022/07/30 03:26:29;;;;;;;5.80;2.80;;;;;;;15.51;100.00;101282.91;4999434;28;20470;-75
2022/07/30 03:28:55;;;;;;;4.38;2.65;;;;;;;15.56;100.00;101280.50;5013619;28;20045;-75
2022/07/30 03:31:20;;;;;;;9.35;3.15;;;;;;;15.60;100.00;101271.06;5017162;28;20541;-75
2022/07/30 03:33:47;;;;;;;6.50;3.08;;;;;;;15.67;100.00;101271.16;5012588;28;20042;-75
2022/07/30 03:36:14;;;;;;;5.18;2.45;;;;;;;15.71;100.00;101266.28;5015106;28;20805;-73
2022/07/30 03:38:42;;;;;;;5.05;2.72;;;;;;;15.71;100.00;101263.56;5010873;28;20037;-73
2022/07/30 03:41:08;;;;;;;3.58;2.22;;;;;;;15.73;100.00;101258.84;5012610;28;20026;-74
2022/07/30 03:43:34;;;;;;;6.80;2.80;;;;;;;15.77;100.00;101262.84;5016364;28;20491;-73
2022/07/30 03:46:06;;;;;;;;;;;;;;;15.80;100.00;101259.78;5012425;28;20120;-75
2022/07/30 03:48:37;;;;;;;4.90;2.85;;;;;;;15.80;100.00;101249.88;4989634;28;19914;-75
2022/07/30 03:51:05;;;;;;;5.30;2.83;;;;;;;15.82;100.00;101247.81;5011989;28;20029;-75
2022/07/30 03:53:30;;;;;;;4.22;2.42;;;;;;;15.88;100.00;101248.94;5004425;28;20105;-75
2022/07/30 03:56:22;;;;;;;5.57;2.70;;;;;;;15.91;100.00;101232.41;5008890;28;20038;-75
2022/07/30 03:59:01;;;;;;;5.25;2.22;;;;;;;15.92;100.00;101234.09;5012778;28;20037;-75
2022/07/30 04:01:27;;;;;;;5.05;2.60;;;;;;;15.92;100.00;101239.47;5016914;28;20034;-75
2022/07/30 04:04:06;;;;;;;6.70;2.67;;;;;;;15.91;100.00;101231.56;5013935;28;20021;-75
2022/07/30 04:06:35;;;;;;;8.68;2.60;;;;;;;15.91;100.00;101235.09;5017298;28;20025;-75
2022/07/30 04:09:00;;;;;;;4.38;3.13;;;;;;;15.91;100.00;101231.56;5016039;28;20025;-75
2022/07/30 04:11:26;;;;;;;3.78;2.53;;;;;;;15.93;100.00;101238.44;5002324;28;20032;-75
2022/07/30 04:14:02;;;;;;;5.53;2.80;;;;;;;15.89;100.00;101229.06;5019281;28;20108;-75
2022/07/30 04:16:46;;;;;;;8.35;2.75;;;;;;;15.90;100.00;101232.59;5015517;28;20715;-75
2022/07/30 04:19:20;;;;;;;4.95;2.40;;;;;;;15.93;100.00;101237.63;5015712;28;20037;-75
2022/07/30 04:21:48;;;;;;;9.30;3.40;;;;;;;15.97;100.00;101250.53;5017893;28;20040;-75
2022/07/30 04:24:15;;;;;;;4.10;2.80;;;;;;;16.02;100.00;101248.09;5017847;28;20513;-75
2022/07/30 04:26:40;;;;;;;7.25;2.50;;;;;;;16.04;100.00;101248.75;5019435;28;20071;-75
2022/07/30 04:29:08;;;;;;;6.55;2.72;;;;;;;16.09;100.00;101258.13;5019209;28;20114;-76
2022/07/30 04:31:34;;;;;;;5.35;2.92;;;;;;;16.14;100.00;101261.09;4998990;28;20132;-73
2022/07/30 04:34:13;;;;;;;5.90;2.80;;;;;;;16.17;100.00;101261.56;5016923;28;20026;-73
2022/07/30 04:36:41;;;;;;;8.52;2.75;;;;;;;16.20;100.00;101257.66;5019655;28;20036;-74
2022/07/30 04:39:06;;;;;;;5.38;2.55;;;;;;;16.25;100.00;101250.69;5014399;28;20033;-73
2022/07/30 04:41:32;;;;;;;9.07;2.80;;;;;;;16.34;100.00;101256.81;5019291;28;20103;-73
2022/07/30 04:44:23;;;;;;;3.53;2.03;;;;;;;16.41;100.00;101246.97;5004462;28;20083;-73
2022/07/30 04:47:09;;;;;;;8.07;2.63;;;;;;;16.54;100.00;101248.97;5013748;28;20047;-75
2022/07/30 04:49:42;;;;;;;4.72;2.38;;;;;;;16.56;100.00;101228.06;5018465;28;20029;-75
2022/07/30 04:52:09;;;;;;;;;;;;;;;16.74;100.00;101246.50;5016995;28;20034;-76
2022/07/30 04:54:41;;;;;;;3.83;1.88;;;;;;;16.85;100.00;101232.53;5019449;28;20067;-73
2022/07/30 04:57:09;;;;;;;3.40;2.35;;;;;;;16.97;100.00;101227.44;5014544;28;20283;-73
2022/07/30 04:59:36;;;;;;;7.07;2.00;;;;;;;17.02;100.00;101219.63;5018666;28;20021;-74
2022/07/30 05:02:05;;;;;;;4.53;2.10;;;;;;;17.05;100.00;101213.84;5015932;28;20168;-73
2022/07/30 05:04:34;;;;;;;5.30;2.50;;;;;;;17.12;100.00;101203.13;5010139;28;20017;-73
2022/07/30 05:07:00;;;;;;;6.25;2.17;;;;;;;17.13;100.00;101191.28;5014719;28;20064;-73
2022/07/30 05:09:27;;;;;;;6.25;2.00;;;;;;;17.13;100.00;101179.66;5017879;28;20360;-73
2022/07/30 05:11:54;;;;;;;5.20;1.92;;;;;;;17.16;100.00;101180.13;5017294;28;20017;-73
2022/07/30 05:14:21;;;;;;;5.53;2.05;;;;;;;17.18;100.00;101186.13;5001244;28;20022;-74
2022/07/30 05:16:46;;;;;;;10.25;2.20;;;;;;;17.27;100.00;101184.13;5018106;28;20086;-73
2022/07/30 05:19:12;;;;;;;4.10;2.00;;;;;;;17.39;100.00;101197.94;5017903;28;20025;-74
2022/07/30 05:21:38;;;;;;;4.15;2.05;;;;;;;17.43;100.00;101196.50;5020370;28;20864;-73
2022/07/30 05:24:04;;;;;;;4.85;2.00;;;;;;;17.49;100.00;101190.34;5017821;28;20060;-74
2022/07/30 05:26:36;;;;;;;6.85;2.05;;;;;;;17.54;100.00;101190.56;5007343;28;20029;-73
2022/07/30 05:29:02;;;;;;;2.88;2.00;;;;;;;17.79;100.00;101198.19;5014922;28;20038;-73
2022/07/30 05:31:40;;;;;;;4.00;1.75;;;;;;;17.95;100.00;101178.16;5011724;28;20437;-73
2022/07/30 05:34:06;;;;;;;4.38;2.08;;;;;;;18.02;100.00;101179.00;5014816;28;20030;-76
2022/07/30 05:36:39;;;;;;;5.22;1.95;;;;;;;18.07;100.00;101182.75;5002764;28;20029;-74
2022/07/30 05:39:05;;;;;;;3.78;2.03;;;;;;;18.25;100.00;101201.13;5010532;28;20390;-74
2022/07/30 05:41:31;;;;;;;4.80;2.27;;;;;;;18.61;100.00;101193.75;5015555;28;20113;-74
2022/07/30 05:44:03;;;;;;;7.53;1.90;;;;;;;19.18;100.00;101184.28;5015204;28;20090;-74
2022/07/30 05:46:30;;;;;;;4.30;2.03;;;;;;;19.63;100.00;101149.22;4991893;28;20021;-74
2022/07/30 05:48:55;;;;;;;;;;;;;;;20.48;100.00;101165.34;4999389;28;20033;-73
2022/07/30 05:51:21;;;;;;;2.08;1.42;;;;;;;21.44;100.00;101069.16;5014035;28;19924;-74
2022/07/30 05:53:46;;;;;;;2.80;1.60;;;;;;;21.82;100.00;100961.22;5011641;28;20025;-74
2022/07/30 05:56:34;;;;;;;6.63;2.10;;;;;;;21.68;100.00;100846.47;5014266;28;20041;-74
2022/07/30 05:59:20;;;;;;;2.53;1.40;;;;;;;21.78;100.00;100889.41;5014119;28;20044;-74
2022/07/30 06:02:07;;;;;;;2.97;1.60;;;;;;;22.18;100.00;100924.09;4998386;28;20036;-74
2022/07/30 06:04:52;;;;;;;;;;;;;;;21.96;100.00;100867.59;5015283;28;20124;-74
2022/07/30 06:07:17;;;;;;;5.13;1.90;;;;;;;20.51;100.00;100766.25;5000057;28;20044;-74
2022/07/30 06:09:43;;;;;;;3.37;2.00;;;;;;;20.74;100.00;100970.91;5017110;28;20471;-74
2022/07/30 06:12:09;;;;;;;4.68;1.90;;;;;;;20.10;100.00;100941.22;5015040;28;20284;-74
2022/07/30 06:14:35;;;;;;;5.68;2.00;;;;;;;20.50;100.00;101034.97;5017845;28;20051;-74
2022/07/30 06:17:00;;;;;;;4.25;1.95;;;;;;;20.12;100.00;101004.16;5014872;28;20036;-73
2022/07/30 06:19:35;;;;;;;5.40;2.25;;;;;;;19.56;100.00;101035.50;5009379;28;20037;-74
2022/07/30 06:22:01;;;;;;;4.70;2.10;;;;;;;19.41;100.00;101127.00;5014862;28;20037;-74
2022/07/30 06:24:27;;;;;;;6.20;2.75;;;;;;;19.52;100.00;101158.81;5001430;28;20563;-74
2022/07/30 06:27:05;;;;;;;2.67;2.13;;;;;;;20.05;100.00;101182.25;5011311;28;20439;-74
2022/07/30 06:29:31;;;;;;;7.43;2.60;;;;;;;20.00;100.00;101060.13;5016970;28;20116;-73
2022/07/30 06:31:56;;;;;;;2.83;1.70;;;;;;;19.77;100.00;101052.53;5014341;28;20048;-74
2022/07/30 06:34:22;;;;;;;7.38;1.88;;;;;;;19.64;100.00;101125.66;5000394;28;20029;-74
2022/07/30 06:36:48;;;;;;;5.53;2.20;;;;;;;19.52;100.00;101088.41;5016393;28;20056;-74
2022/07/30 06:39:17;;;;;;;4.25;2.63;;;;;;;19.38;100.00;101108.44;5016625;28;20045;-74
2022/07/30 06:42:08;;;;;;;4.07;2.20;;;;;;;19.65;100.00;101105.69;5008212;28;20072;-74
2022/07/30 06:44:59;;;;;;;7.60;2.08;;;;;;;19.87;100.00;101071.84;5015758;28;20072;-74
2022/07/30 06:47:27;;;;;;;3.40;2.20;;;;;;;20.36;100.00;101104.72;5016823;28;20182;-73
2022/07/30 06:49:55;;;;;;;2.63;1.95;;;;;;;20.53;100.00;101039.94;5015087;28;20029;-74
2022/07/30 06:52:21;;;;;;;3.58;1.60;;;;;;;20.03;100.00;100956.69;5016281;28;20046;-74
2022/07/30 06:54:50;;;;;;;3.22;1.83;;;;;;;20.01;100.00;101021.13;4999954;28;20063;-74
2022/07/30 06:57:35;;;;;;;5.28;2.10;;;;;;;20.19;100.00;100998.69;5010085;28;20080;-73
2022/07/30 07:00:05;;;;;;;9.02;2.13;;;;;;;20.60;100.00;101040.72;5013176;28;20052;-74
2022/07/30 07:02:34;;;;;;;6.80;2.13;;;;;;;20.52;100.00;100929.81;5017112;28;20061;-74
2022/07/30 07:05:09;;;;;;;3.25;1.75;;;;;;;20.67;100.00;100938.41;5002166;28;20034;-74
2022/07/30 07:07:36;;;;;;;6.38;1.98;;;;;;;21.91;100.00;100982.44;5017128;28;20034;-74
2022/07/30 07:10:02;;;;;;;4.28;2.20;;;;;;;22.29;100.00;100860.75;5013772;28;20022;-73
2022/07/30 07:12:43;;;;;;;4.22;1.95;;;;;;;23.04;100.00;100889.03;5012174;28;20037;-74
2022/07/30 07:15:09;;;;;;;4.15;1.92;;;;;;;22.63;100.00;100820.94;5014380;28;20157;-74
2022/07/30 07:17:36;;;;;;;3.08;1.80;;;;;;;22.44;98.16;100762.34;5017023;28;20033;-74
2022/07/30 07:20:01;;;;;;;4.93;1.90;;;;;;;22.16;100.00;100834.59;5015134;28;20049;-74
2022/07/30 07:22:28;;;;;;;3.92;1.90;;;;;;;22.03;100.00;100853.84;5000970;28;20919;-74
2022/07/30 07:24:54;;;;;;;3.63;2.30;;;;;;;22.25;100.00;100841.38;4998490;28;20033;-74
2022/07/30 07:27:24;;;;;;;7.07;1.70;;;;;;;22.86;96.22;100832.84;5016445;28;20091;-74
2022/07/30 07:29:54;;;;;;;5.18;1.80;;;;;;;22.28;95.46;100742.97;5014432;28;20541;-74
2022/07/30 07:32:19;;;;;;;5.28;2.00;;;;;;;21.86;100.00;100886.34;5015677;28;20034;-74
2022/07/30 07:34:45;;;;;;;5.97;2.10;;;;;;;22.24;100.00;100888.66;4999858;28;20026;-74
2022/07/30 07:37:11;;;;;;;10.23;2.33;;;;;;;21.66;100.00;100837.78;5014537;28;20026;-74
2022/07/30 07:39:36;;;;;;;5.37;2.03;;;;;;;21.38;100.00;100858.22;5000068;28;20026;-74
2022/07/30 07:42:02;;;;;;;4.68;2.35;;;;;;;21.08;100.00;100891.59;5014520;28;20551;-74
2022/07/30 07:44:29;;;;;;;6.43;2.45;;;;;;;21.45;100.00;100940.44;5015882;28;20036;-74
2022/07/30 07:46:54;;;;;;;5.87;1.90;;;;;;;21.59;100.00;100972.88;5018474;28;20033;-74
2022/07/30 07:49:23;;;;;;;3.83;1.90;;;;;;;21.70;100.00;101001.97;5019511;28;20405;-75
2022/07/30 07:51:50;;;;;;;3.55;2.15;;;;;;;21.72;100.00;101005.28;5018940;28;20032;-74
2022/07/30 07:54:17;;;;;;;8.07;2.75;;;;;;;21.59;100.00;100956.56;5018884;28;20839;-74
2022/07/30 07:56:43;;;;;;;5.65;2.10;;;;;;;21.61;100.00;100970.72;5019886;28;20048;-75
2022/07/30 07:59:10;;;;;;;3.20;2.00;;;;;;;21.18;100.00;100879.38;5017653;28;20033;-74
2022/07/30 08:01:36;;;;;;;6.13;2.50;;;;;;;21.49;100.00;100940.81;5020174;28;20433;-74
2022/07/30 08:04:20;;;;;;;7.25;2.33;;;;;;;21.33;100.00;100811.91;5009071;28;20502;-74
2022/07/30 08:07:24;;;;;;;4.43;2.35;;;;;;;21.47;100.00;100870.44;5015347;28;20638;-74
2022/07/30 08:10:09;;;;;;;4.53;2.83;;;;;;;21.68;100.00;100956.03;5015821;28;21005;-75
2022/07/30 08:12:50;;;;;;;4.82;2.60;;;;;;;20.83;100.00;100730.78;5004318;28;20049;-74
2022/07/30 08:15:34;;;;;;;3.63;2.50;;;;;;;20.69;100.00;100806.09;5013588;28;20087;-74
2022/07/30 08:18:14;;;;;;;6.13;2.33;;;;;;;20.78;100.00;100888.03;5017614;28;20141;-74
2022/07/30 08:20:46;;;;;;;3.45;2.33;;;;;;;20.35;100.00;100897.00;5018743;28;20536;-74
2022/07/30 08:23:13;;;;;;;5.32;2.13;;;;;;;20.82;100.00;100973.34;5016420;28;20465;-75
2022/07/30 08:25:38;;;;;;;2.87;2.17;;;;;;;20.67;100.00;100922.16;4996751;28;20021;-74
2022/07/30 08:28:04;;;;;;;2.47;2.13;;;;;;;21.05;100.00;100997.94;5016477;28;20137;-74
2022/07/30 08:30:30;;;;;;;4.50;2.00;;;;;;;21.36;100.00;101042.28;5019456;28;20310;-74
2022/07/30 08:32:56;;;;;;;2.80;1.95;;;;;;;21.45;100.00;101043.66;5017638;28;20300;-74
2022/07/30 08:35:21;;;;;;;5.93;2.05;;;;;;;22.04;100.00;100981.41;5018604;28;20057;-74
2022/07/30 08:37:47;;;;;;;9.02;3.10;;;;;;;21.72;95.35;100782.47;5018566;28;20032;-75
2022/07/30 08:40:13;;;;;;;4.43;2.22;;;;;;;21.66;98.09;100854.06;4999317;28;20029;-74
2022/07/30 08:42:51;;;;;;;7.88;2.88;;;;;;;22.45;96.49;100957.13;5018115;28;20471;-74
2022/07/30 08:45:17;;;;;;;5.47;2.63;;;;;;;22.74;89.02;100844.59;5017384;28;20467;-74
2022/07/30 08:47:45;;;;;;;5.55;2.28;;;;;;;21.92;90.18;100746.81;5019104;28;20025;-74
2022/07/30 08:50:11;;;;;;;2.97;2.03;;;;;;;21.75;94.22;100814.63;5017841;28;20049;-74
2022/07/30 08:52:54;;;;;;;7.25;2.33;;;;;;;21.78;93.79;100819.59;5017725;28;20052;-74
2022/07/30 08:55:24;;;;;;;7.45;2.63;;;;;;;21.37;98.38;100828.56;5017001;28;20061;-74
2022/07/30 08:57:50;;;;;;;6.55;2.33;;;;;;;21.31;100.00;100905.53;5017914;28;20091;-74
2022/07/30 09:00:16;;;;;;;5.45;1.90;;;;;;;21.78;100.00;100987.25;5000823;28;20435;-74
2022/07/30 09:02:43;;;;;;;4.28;2.20;;;;;;;21.98;93.58;100843.69;5013943;28;20096;-73
2022/07/30 09:05:10;;;;;;;6.50;2.65;;;;;;;22.56;90.46;100882.84;5017692;28;20029;-74
2022/07/30 09:07:36;;;;;;;4.38;2.40;;;;;;;22.92;86.65;100864.53;5019148;28;20486;-74
2022/07/30 09:10:04;;;;;;;4.82;2.30;;;;;;;23.23;81.85;100803.34;4999043;28;20526;-74
2022/07/30 09:12:43;;;;;;;5.20;2.20;;;;;;;23.15;78.36;100695.63;5010153;28;20400;-74
2022/07/30 09:15:18;;;;;;;3.63;2.30;;;;;;;23.13;81.22;100793.09;5013526;28;20038;-74
2022/07/30 09:17:53;;;;;;;9.68;2.55;;;;;;;23.42;81.17;100844.00;5001997;28;20518;-74
2022/07/30 09:20:21;;;;;;;5.10;2.25;;;;;;;23.04;76.65;100653.00;5017066;28;20147;-74
2022/07/30 09:22:49;;;;;;;3.45;2.20;;;;;;;23.38;76.77;100748.31;5018054;28;20056;-74
2022/07/30 09:25:44;;;;;;;3.58;2.15;;;;;;;23.00;76.58;100679.06;5015441;28;20043;-74
2022/07/30 09:28:31;;;;;;;3.92;2.53;;;;;;;23.71;73.29;100716.66;5019848;28;20140;-74
2022/07/30 09:31:12;;;;;;;5.15;2.00;;;;;;;24.57;67.84;100691.59;5015953;28;20077;-75
2022/07/30 09:33:56;;;;;;;4.18;2.67;;;;;;;24.42;65.21;100537.53;5017415;28;20131;-74
2022/07/30 09:36:59;;;;;;;6.13;2.00;;;;;;;24.46;68.36;100711.66;4994237;28;20042;-75
2022/07/30 09:39:43;;;;;;;6.30;2.13;;;;;;;25.27;64.21;100690.63;5012883;28;20136;-74
2022/07/30 09:42:25;;;;;;;3.38;2.20;;;;;;;26.50;59.66;100688.53;5018608;28;20439;-75
2022/07/30 09:45:08;;;;;;;4.75;2.10;;;;;;;25.64;60.59;100574.16;5016575;28;20647;-75
2022/07/30 09:47:40;;;;;;;11.85;2.20;;;;;;;25.64;61.20;100634.28;5007384;28;20026;-75
2022/07/30 09:50:14;;;;;;;6.22;2.35;;;;;;;25.53;60.74;100564.25;4996146;28;20080;-75
2022/07/30 09:52:42;;;;;;;6.15;2.33;;;;;;;24.72;63.91;100593.47;5002469;28;20021;-75
2022/07/30 09:55:08;;;;;;;7.88;2.45;;;;;;;24.92;64.96;100663.81;4999984;28;20156;-75
2022/07/30 09:57:34;;;;;;;;;;;;;;;24.59;67.96;100725.75;5017238;28;20040;-75
2022/07/30 10:00:20;;;;;;;5.57;2.20;;;;;;;25.16;62.90;100611.56;5015619;28;19913;-76
2022/07/30 10:02:52;;;;;;;5.00;2.30;;;;;;;25.52;60.38;100557.97;5021984;28;20037;-75
2022/07/30 10:05:55;;;;;;;8.60;2.55;;;;;;;25.04;63.79;100666.38;5015172;28;20470;-75
2022/07/30 10:08:41;;;;;;;9.73;2.55;;;;;;;25.10;63.80;100651.69;5017510;28;20062;-75
2022/07/30 10:11:15;;;;;;;10.43;2.28;;;;;;;25.17;65.45;100712.38;4995837;28;20128;-75
2022/07/30 10:13:42;;;;;;;5.15;2.10;;;;;;;24.62;67.34;100686.19;5018358;28;20029;-75
2022/07/30 10:16:08;;;;;;;3.95;2.75;;;;;;;24.61;69.67;100760.97;4998826;28;20187;-75
2022/07/30 10:18:35;;;;;;;4.22;2.10;;;;;;;24.02;70.09;100658.78;5017181;28;20475;-75
2022/07/30 10:21:19;;;;;;;4.97;2.67;;;;;;;24.54;70.91;100801.28;5015876;28;20100;-75
2022/07/30 10:24:24;;;;;;;7.43;2.27;;;;;;;24.58;66.67;100676.88;5015809;28;20109;-75
2022/07/30 10:27:19;;;;;;;7.75;2.85;;;;;;;24.70;63.42;100565.63;5015227;28;20285;-75
2022/07/30 10:29:57;;;;;;;4.45;2.40;;;;;;;24.13;64.48;100496.06;5010168;28;20045;-75
2022/07/30 10:32:25;;;;;;;7.93;2.90;;;;;;;23.70;67.33;100551.50;5017394;28;20623;-76
2022/07/30 10:34:51;;;;;;;5.82;2.22;;;;;;;23.94;67.65;100629.22;5016354;28;20040;-75
2022/07/30 10:37:18;;;;;;;10.45;2.55;;;;;;;23.68;66.97;100532.66;5016361;28;20046;-75
2022/07/30 10:39:51;;;;;;;3.10;2.10;;;;;;;24.19;67.68;100685.16;5012031;28;20482;-75
2022/07/30 10:42:19;;;;;;;3.20;2.00;;;;;;;23.86;68.50;100639.72;5016335;28;20034;-74
2022/07/30 10:45:02;;;;;;;3.80;2.58;;;;;;;23.39;67.12;100508.34;5017517;28;20112;-75
2022/07/30 10:47:29;;;;;;;7.47;2.80;;;;;;;23.63;66.22;100531.78;5017796;28;20037;-75
2022/07/30 10:50:06;;;;;;;6.97;2.80;;;;;;;23.69;67.60;100620.69;4998904;28;20029;-75
2022/07/30 10:52:53;;;;;;;8.35;2.58;;;;;;;24.50;65.51;100696.44;5010037;28;20025;-74
2022/07/30 10:55:27;;;;;;;6.10;2.78;;;;;;;24.60;61.96;100558.16;5014770;28;20038;-75
2022/07/30 10:57:57;;;;;;;7.43;2.63;;;;;;;23.97;60.51;100345.16;5015854;28;20034;-74
2022/07/30 11:00:24;;;;;;;10.00;2.60;;;;;;;24.21;60.66;100453.88;5016190;28;20239;-75
2022/07/30 11:03:30;;;;;;;2.90;2.10;;;;;;;24.08;60.30;100416.94;5016043;28;20021;-75
2022/07/30 11:06:14;;;;;;;9.77;3.35;;;;;;;23.66;64.26;100534.00;5012922;28;20061;-75
2022/07/30 11:08:40;;;;;;;4.90;2.28;;;;;;;24.23;62.30;100583.47;5010305;28;20406;-75
2022/07/30 11:11:21;;;;;;;8.20;2.47;;;;;;;23.92;61.95;100478.69;4994123;28;20030;-74
2022/07/30 11:13:52;;;;;;;5.85;2.00;;;;;;;23.83;63.06;100518.41;5016331;28;20057;-75
2022/07/30 11:16:23;;;;;;;9.48;2.17;;;;;;;24.48;63.11;100669.41;5015883;28;20025;-74
2022/07/30 11:19:15;;;;;;;5.38;1.95;;;;;;;24.54;60.90;100577.50;5019322;28;20570;-75
2022/07/30 11:21:42;;;;;;;6.53;2.95;;;;;;;24.65;62.14;100655.66;5015541;28;20057;-75
2022/07/30 11:24:46;;;;;;;6.97;2.90;;;;;;;24.70;61.87;100642.06;5002215;28;20025;-74
2022/07/30 11:27:37;;;;;;;8.68;2.38;;;;;;;23.87;64.50;100570.53;5016465;28;20033;-74
2022/07/30 11:30:07;;;;;;;5.20;2.40;;;;;;;23.90;64.07;100553.66;5017354;28;20040;-74
2022/07/30 11:32:33;;;;;;;8.02;3.20;;;;;;;23.96;66.19;100661.69;4989426;28;20553;-75
2022/07/30 11:35:13;;;;;;;4.65;2.47;;;;;;;23.98;63.75;100559.47;5000679;28;20045;-75
2022/07/30 11:37:54;;;;;;;6.00;3.10;;;;;;;24.32;65.04;100692.94;5015065;28;20049;-75
2022/07/30 11:40:19;;;;;;;4.28;2.50;;;;;;;24.64;64.51;100730.44;5017722;28;20034;-75
2022/07/30 11:42:45;;;;;;;5.77;2.70;;;;;;;24.47;63.42;100640.47;5003660;28;20440;-75
2022/07/30 11:45:21;;;;;;;3.80;2.25;;;;;;;24.13;65.91;100661.63;5019029;28;20387;-74